createdAt,value
2018-12-08T00:02:49.816Z,90.60
2018-12-08T00:05:57.473Z,90.44
2018-12-08T00:09:07.888Z,90.17
2018-12-08T00:12:25.313Z,90.37
2018-12-08T00:15:42.813Z,89.59
2018-12-08T00:19:00.338Z,88.77
2018-12-08T00:22:17.897Z,89.57
2018-12-08T00:25:25.452Z,88.96
2018-12-08T00:28:33.089Z,88.44
2018-12-08T00:31:46.219Z,87.92
2018-12-08T00:34:53.807Z,87.87
2018-12-08T00:38:01.297Z,88.50
2018-12-08T00:44:24.776Z,86.44
2018-12-08T00:47:42.233Z,88.46
2018-12-08T00:51:00.073Z,87.49
2018-12-08T00:54:08.123Z,86.18
2018-12-08T00:57:15.639Z,87.11
2018-12-08T01:00:33.091Z,85.97
2018-12-08T01:03:50.550Z,86.32
2018-12-08T01:07:08.036Z,86.93
2018-12-08T01:10:25.804Z,86.34
2018-12-08T01:13:43.224Z,86.17
2018-12-08T01:17:00.664Z,86.95
2018-12-08T01:20:18.120Z,86.27
2018-12-08T01:23:35.597Z,86.10
2018-12-08T01:26:43.252Z,86.10
2018-12-08T01:29:50.753Z,86.12
2018-12-08T01:32:58.280Z,86.45
2018-12-08T01:36:05.838Z,86.58
2018-12-08T01:39:23.572Z,87.03
2018-12-08T01:42:31.248Z,87.34
2018-12-08T01:45:39.169Z,86.82
2018-12-08T01:48:46.768Z,86.44
2018-12-08T01:51:54.340Z,86.77
2018-12-08T01:55:02.280Z,87.50
2018-12-08T01:58:09.900Z,87.34
2018-12-08T02:01:17.836Z,86.46
2018-12-08T02:04:25.332Z,86.29
2018-12-08T02:07:32.787Z,86.25
2018-12-08T02:10:40.293Z,86.77
2018-12-08T02:13:57.810Z,86.70
2018-12-08T02:17:15.112Z,86.41
2018-12-08T02:20:32.596Z,86.36
2018-12-08T02:23:50.217Z,85.87
2018-12-08T02:26:57.712Z,85.75
2018-12-08T02:30:06.537Z,86.43
2018-12-08T02:33:14.414Z,85.40
2018-12-08T02:36:21.941Z,86.11
2018-12-08T02:39:39.500Z,86.91
2018-12-08T02:42:47.174Z,86.82
2018-12-08T02:45:54.664Z,85.67
2018-12-08T02:49:02.156Z,86.58
2018-12-08T02:52:09.636Z,85.69
2018-12-08T02:55:17.147Z,86.05
2018-12-08T02:58:34.524Z,85.83
2018-12-08T03:01:53.046Z,84.39
2018-12-08T03:05:00.544Z,84.42
2018-12-08T03:08:18.608Z,84.14
2018-12-08T03:11:36.081Z,84.33
2018-12-08T03:14:53.519Z,84.08
2018-12-08T03:18:10.963Z,83.32
2018-12-08T03:21:28.875Z,83.01
2018-12-08T03:24:36.684Z,82.89
2018-12-08T03:27:45.361Z,82.28
2018-12-08T03:30:53.265Z,82.41
2018-12-08T03:34:01.029Z,82.52
2018-12-08T03:40:24.316Z,82.01
2018-12-08T03:43:41.760Z,82.16
2018-12-08T03:46:59.260Z,82.66
2018-12-08T03:50:16.691Z,81.26
2018-12-08T03:53:34.140Z,81.46
2018-12-08T03:56:52.077Z,80.99
2018-12-08T03:59:59.680Z,81.28
2018-12-08T04:03:07.144Z,81.01
2018-12-08T04:06:14.628Z,80.51
2018-12-08T04:09:32.324Z,80.87
2018-12-08T04:12:49.702Z,80.76
2018-12-08T04:16:07.672Z,80.77
2018-12-08T04:19:15.236Z,79.98
2018-12-08T04:22:22.765Z,80.67
2018-12-08T04:25:30.376Z,80.44
2018-12-08T04:28:47.788Z,80.27
2018-12-08T04:32:05.258Z,79.44
2018-12-08T04:35:22.692Z,80.57
2018-12-08T04:38:40.144Z,79.43
2018-12-08T04:41:57.589Z,80.29
2018-12-08T04:45:06.786Z,80.06
2018-12-08T04:48:14.280Z,80.23
2018-12-08T04:51:21.761Z,80.01
2018-12-08T04:54:29.222Z,80.28
2018-12-08T04:57:37.155Z,81.38
2018-12-08T05:00:44.631Z,81.95
2018-12-08T05:03:52.116Z,82.57
2018-12-08T05:06:59.632Z,83.53
2018-12-08T05:10:08.972Z,83.08
2018-12-08T05:13:16.465Z,82.92
2018-12-08T05:16:23.953Z,83.33
2018-12-08T05:19:31.529Z,83.23
2018-12-08T05:22:39.007Z,83.62
2018-12-08T05:25:46.493Z,83.62
2018-12-08T05:29:03.868Z,83.83
2018-12-08T05:32:21.905Z,83.75
2018-12-08T05:35:29.484Z,84.56
2018-12-08T05:38:36.967Z,85.12
2018-12-08T05:41:44.332Z,85.67
2018-12-08T05:44:51.796Z,85.17
2018-12-08T05:47:59.288Z,83.83
2018-12-08T05:51:16.856Z,84.16
2018-12-08T05:54:34.372Z,83.72
2018-12-08T05:57:42.284Z,84.04
2018-12-08T06:00:49.771Z,82.54
2018-12-08T06:03:57.359Z,83.53
2018-12-08T06:07:15.113Z,82.58
2018-12-08T06:10:22.849Z,80.94
2018-12-08T06:13:30.372Z,81.03
2018-12-08T06:16:37.841Z,81.16
2018-12-08T06:19:45.336Z,80.53
2018-12-08T06:23:02.832Z,81.22
2018-12-08T06:26:23.438Z,80.94
2018-12-08T06:29:41.716Z,80.69
2018-12-08T06:32:49.203Z,81.21
2018-12-08T06:35:56.667Z,81.26
2018-12-08T06:39:05.192Z,82.70
2018-12-08T06:42:12.708Z,82.44
2018-12-08T06:45:20.291Z,81.78
2018-12-08T06:48:37.604Z,83.07
2018-12-08T06:51:55.244Z,82.92
2018-12-08T06:55:12.801Z,82.12
2018-12-08T06:58:20.387Z,82.17
2018-12-08T07:01:27.856Z,81.77
2018-12-08T07:04:35.341Z,81.98
2018-12-08T07:07:42.820Z,81.00
2018-12-08T07:10:50.288Z,81.20
2018-12-08T07:14:07.789Z,81.45
2018-12-08T07:17:25.216Z,81.26
2018-12-08T07:20:42.682Z,81.66
2018-12-08T07:24:00.156Z,81.09
2018-12-08T07:27:17.686Z,81.26
2018-12-08T07:30:35.283Z,80.61
2018-12-08T07:33:43.180Z,80.59
2018-12-08T07:40:09.519Z,80.81
2018-12-08T07:43:27.173Z,80.68
2018-12-08T07:46:44.598Z,80.52
2018-12-08T07:50:02.123Z,79.69
2018-12-08T07:53:19.480Z,79.96
2018-12-08T07:56:36.987Z,80.69
2018-12-08T07:59:54.527Z,81.90
2018-12-08T08:03:11.929Z,83.39
2018-12-08T08:06:29.388Z,83.41
2018-12-08T08:09:46.803Z,84.59
2018-12-08T08:13:04.240Z,84.88
2018-12-08T08:16:21.725Z,86.21
2018-12-08T08:19:39.202Z,86.65
2018-12-08T08:22:56.604Z,87.43
2018-12-08T08:26:14.082Z,87.50
2018-12-08T08:29:31.607Z,87.16
2018-12-08T08:32:48.983Z,87.35
2018-12-08T08:36:06.432Z,86.84
2018-12-08T08:39:23.913Z,86.30
2018-12-08T08:42:41.320Z,85.65
2018-12-08T08:45:58.764Z,84.78
2018-12-08T08:49:16.191Z,84.72
2018-12-08T08:52:33.997Z,83.57
2018-12-08T08:55:41.561Z,83.21
2018-12-08T08:58:49.041Z,82.30
2018-12-08T09:01:57.315Z,82.28
2018-12-08T09:05:06.090Z,81.88
2018-12-08T09:08:13.593Z,82.44
2018-12-08T09:11:21.196Z,82.71
2018-12-08T09:14:28.676Z,82.90
2018-12-08T09:17:36.157Z,82.90
2018-12-08T09:20:53.624Z,83.32
2018-12-08T09:24:11.119Z,82.87
2018-12-08T09:27:28.640Z,82.50
2018-12-08T09:30:46.155Z,82.84
2018-12-08T09:34:03.520Z,82.27
2018-12-08T09:37:21.208Z,82.15
2018-12-08T09:40:29.213Z,82.69
2018-12-08T09:43:36.703Z,82.43
2018-12-08T09:46:44.648Z,82.39
2018-12-08T09:49:52.185Z,82.63
2018-12-08T09:53:14.733Z,82.99
2018-12-08T09:56:22.206Z,83.15
2018-12-08T09:59:29.724Z,83.72
2018-12-08T10:02:37.271Z,84.00
2018-12-08T10:05:44.734Z,84.93
2018-12-08T10:08:52.368Z,84.88
2018-12-08T10:11:59.943Z,84.64
2018-12-08T10:15:07.984Z,84.40
2018-12-08T10:18:15.585Z,84.52
2018-12-08T10:21:23.156Z,85.45
2018-12-08T10:24:30.676Z,85.68
2018-12-08T10:27:38.150Z,85.17
2018-12-08T10:30:46.387Z,85.49
2018-12-08T10:33:53.872Z,85.25
2018-12-08T10:37:01.361Z,85.44
2018-12-08T10:40:10.932Z,85.58
2018-12-08T10:43:18.524Z,85.47
2018-12-08T10:46:25.992Z,85.01
2018-12-08T10:49:33.517Z,84.58
2018-12-08T10:52:41.093Z,84.25
2018-12-08T10:55:58.539Z,84.83
2018-12-08T10:59:15.984Z,85.38
2018-12-08T11:02:37.799Z,86.06
2018-12-08T11:05:45.441Z,85.92
2018-12-08T11:09:03.197Z,86.73
2018-12-08T11:12:10.824Z,86.76
2018-12-08T11:15:18.360Z,87.72
2018-12-08T11:18:25.943Z,88.16
2018-12-08T11:21:43.986Z,87.80
2018-12-08T11:24:51.583Z,88.08
2018-12-08T11:27:59.055Z,88.63
2018-12-08T11:31:07.093Z,88.81
2018-12-08T11:34:14.700Z,88.72
2018-12-08T11:37:22.159Z,88.92
2018-12-08T11:40:29.665Z,88.41
2018-12-08T11:43:37.741Z,87.21
2018-12-08T11:46:45.852Z,87.87
2018-12-08T11:50:07.244Z,87.56
2018-12-08T11:53:14.872Z,87.76
2018-12-08T11:56:22.424Z,88.49
2018-12-08T11:59:29.964Z,88.39
2018-12-08T12:02:37.532Z,87.53
2018-12-08T12:05:45.901Z,88.15
2018-12-08T12:08:54.823Z,87.77
2018-12-08T12:12:12.560Z,88.30
2018-12-08T12:15:29.957Z,88.73
2018-12-08T12:18:48.028Z,89.30
2018-12-08T12:21:55.716Z,89.36
2018-12-08T12:25:04.065Z,89.93
2018-12-08T12:31:27.263Z,90.22
2018-12-08T12:34:44.709Z,90.06
2018-12-08T12:38:02.174Z,89.39
2018-12-08T12:41:19.730Z,89.85
2018-12-08T12:44:37.111Z,89.31
2018-12-08T12:47:54.528Z,89.47
2018-12-08T12:51:14.084Z,88.75
2018-12-08T12:54:31.433Z,88.26
2018-12-08T12:57:48.975Z,88.57
2018-12-08T13:01:06.436Z,88.64
2018-12-08T13:04:23.839Z,88.39
2018-12-08T13:07:41.387Z,88.78
2018-12-08T13:10:49.194Z,88.66
2018-12-08T13:13:56.691Z,88.83
2018-12-08T13:20:19.892Z,88.08
2018-12-08T13:23:37.370Z,87.12
2018-12-08T13:26:55.044Z,86.55
2018-12-08T13:30:02.596Z,87.16
2018-12-08T13:33:10.232Z,86.45
2018-12-08T13:36:17.796Z,85.22
2018-12-08T13:39:25.364Z,84.75
2018-12-08T13:42:32.859Z,83.65
2018-12-08T13:45:40.341Z,84.29
2018-12-08T13:48:48.171Z,83.66
2018-12-08T13:51:55.638Z,83.94
2018-12-08T13:55:13.136Z,84.21
2018-12-08T13:58:30.565Z,84.41
2018-12-08T14:01:48.052Z,84.17
2018-12-08T14:05:07.325Z,84.31
2018-12-08T14:08:14.811Z,84.08
2018-12-08T14:11:22.399Z,84.35
2018-12-08T14:14:29.880Z,84.44
2018-12-08T14:20:53.509Z,84.45
2018-12-08T14:24:10.988Z,84.08
2018-12-08T14:27:28.506Z,84.48
2018-12-08T14:30:46.452Z,83.91
2018-12-08T14:33:54.469Z,84.67
2018-12-08T14:37:02.044Z,85.11
2018-12-08T14:40:19.515Z,85.48
2018-12-08T14:43:27.100Z,85.80
2018-12-08T14:46:34.614Z,85.22
2018-12-08T14:49:42.198Z,84.30
2018-12-08T14:52:49.696Z,84.12
2018-12-08T14:56:07.340Z,85.26
2018-12-08T14:59:24.755Z,85.22
2018-12-08T15:02:42.734Z,85.58
2018-12-08T15:05:50.216Z,84.40
2018-12-08T15:08:57.697Z,84.49
2018-12-08T15:12:05.659Z,84.59
2018-12-08T15:15:13.164Z,84.05
2018-12-08T15:18:20.630Z,83.88
2018-12-08T15:21:28.252Z,83.36
2018-12-08T15:24:35.767Z,83.25
2018-12-08T15:27:53.205Z,83.25
2018-12-08T15:31:11.528Z,83.29
2018-12-08T15:34:19.080Z,83.11
2018-12-08T15:37:26.541Z,83.06
2018-12-08T15:40:44.769Z,83.12
2018-12-08T15:44:02.148Z,82.77
2018-12-08T15:47:20.025Z,81.64
2018-12-08T15:50:38.007Z,82.21
2018-12-08T15:53:45.926Z,81.82
2018-12-08T15:56:53.542Z,81.19
2018-12-08T16:00:13.494Z,80.74
2018-12-08T16:03:22.086Z,81.09
2018-12-08T16:06:30.951Z,80.33
2018-12-08T16:09:40.368Z,79.83
2018-12-08T16:13:02.360Z,79.23
2018-12-08T16:16:11.705Z,79.77
2018-12-08T16:19:19.228Z,79.36
2018-12-08T16:22:36.817Z,80.88
2018-12-08T16:25:54.298Z,82.26
2018-12-08T16:29:11.700Z,81.06
2018-12-08T16:32:29.837Z,81.86
2018-12-08T16:35:37.389Z,81.28
2018-12-08T16:38:44.901Z,81.74
2018-12-08T16:41:52.520Z,81.82
2018-12-08T16:44:59.996Z,81.46
2018-12-08T16:48:07.539Z,81.31
2018-12-08T16:51:15.499Z,81.24
2018-12-08T16:54:36.008Z,81.12
2018-12-08T16:57:53.564Z,81.12
2018-12-08T17:01:01.359Z,81.22
2018-12-08T17:04:08.936Z,81.67
2018-12-08T17:07:16.590Z,81.54
2018-12-08T17:10:24.852Z,81.98
2018-12-08T17:13:32.323Z,82.24
2018-12-08T17:16:39.901Z,82.01
2018-12-08T17:19:57.882Z,82.41
2018-12-08T17:23:05.800Z,83.12
2018-12-08T17:26:13.800Z,82.75
2018-12-08T17:29:21.327Z,82.71
2018-12-08T17:32:28.788Z,82.89
2018-12-08T17:35:36.298Z,83.08
2018-12-08T17:38:43.905Z,82.42
2018-12-08T17:41:51.692Z,82.13
2018-12-08T17:44:59.217Z,81.26
2018-12-08T17:48:07.122Z,81.58
2018-12-08T17:51:14.597Z,81.94
2018-12-08T17:54:22.221Z,81.23
2018-12-08T17:57:29.676Z,81.50
2018-12-08T18:00:37.984Z,80.94
2018-12-08T18:03:45.884Z,81.15
2018-12-08T18:06:53.823Z,80.53
2018-12-08T18:10:01.297Z,81.33
2018-12-08T18:13:08.744Z,81.05
2018-12-08T18:16:16.224Z,81.30
2018-12-08T18:19:23.732Z,81.50
2018-12-08T18:22:41.155Z,80.98
2018-12-08T18:25:48.955Z,81.95
2018-12-08T18:28:56.433Z,82.51
2018-12-08T18:32:03.963Z,82.53
2018-12-08T18:35:11.456Z,82.46
2018-12-08T18:38:28.996Z,81.87
2018-12-08T18:41:47.031Z,82.54
2018-12-08T18:45:04.972Z,82.02
2018-12-08T18:48:12.448Z,81.96
2018-12-08T18:51:19.959Z,82.01
2018-12-08T18:54:27.440Z,81.72
2018-12-08T18:57:34.908Z,81.92
2018-12-08T19:00:52.379Z,81.65
2018-12-08T19:04:09.792Z,82.24
2018-12-08T19:07:27.251Z,80.97
2018-12-08T19:10:44.667Z,81.57
2018-12-08T19:14:05.172Z,81.57
2018-12-08T19:17:22.640Z,82.05
2018-12-08T19:20:40.964Z,81.96
2018-12-08T19:23:48.437Z,81.99
2018-12-08T19:26:55.945Z,81.99
2018-12-08T19:30:14.386Z,81.24
2018-12-08T19:33:21.890Z,82.07
2018-12-08T19:36:29.392Z,82.12
2018-12-08T19:39:47.065Z,81.46
2018-12-08T19:42:54.520Z,81.48
2018-12-08T19:46:02.519Z,81.57
2018-12-08T19:49:10.007Z,80.86
2018-12-08T19:52:27.565Z,80.44
2018-12-08T19:55:44.977Z,80.61
2018-12-08T19:59:02.425Z,80.03
2018-12-08T20:02:19.964Z,80.59
2018-12-08T20:05:38.236Z,80.37
2018-12-08T20:08:45.799Z,80.28
2018-12-08T20:11:54.054Z,79.67
2018-12-08T20:15:01.592Z,80.06
2018-12-08T20:18:09.220Z,80.13
2018-12-08T20:21:26.844Z,79.71
2018-12-08T20:24:44.284Z,79.95
2018-12-08T20:28:01.712Z,79.64
2018-12-08T20:31:19.215Z,79.90
2018-12-08T20:34:36.672Z,79.82
2018-12-08T20:37:54.059Z,79.84
2018-12-08T20:41:11.617Z,79.44
2018-12-08T20:44:28.955Z,79.91
2018-12-08T20:47:46.391Z,80.02
2018-12-08T20:51:03.899Z,79.46
2018-12-08T20:54:21.383Z,78.95
2018-12-08T20:57:38.776Z,79.54
2018-12-08T21:00:56.183Z,79.43
2018-12-08T21:04:13.636Z,79.60
2018-12-08T21:07:31.196Z,79.72
2018-12-08T21:10:48.580Z,79.74
2018-12-08T21:14:06.447Z,79.60
2018-12-08T21:17:14.923Z,79.11
2018-12-08T21:20:22.980Z,79.26
2018-12-08T21:23:30.460Z,79.20
2018-12-08T21:26:38.098Z,80.02
2018-12-08T21:29:55.501Z,80.41
2018-12-08T21:33:12.923Z,81.34
2018-12-08T21:36:30.316Z,83.51
2018-12-08T21:39:47.820Z,85.75
2018-12-08T21:43:05.315Z,87.30
2018-12-08T21:46:22.728Z,89.14
2018-12-08T21:49:40.279Z,90.33
2018-12-08T21:52:57.633Z,91.78
2018-12-08T21:56:15.116Z,93.03
2018-12-08T21:59:32.608Z,94.45
2018-12-08T22:02:49.943Z,94.87
2018-12-08T22:06:07.540Z,95.32
2018-12-08T22:09:24.964Z,95.10
2018-12-08T22:12:42.480Z,95.41
2018-12-08T22:16:00.435Z,95.61
2018-12-08T22:19:17.809Z,95.40
2018-12-08T22:22:35.272Z,95.37
2018-12-08T22:25:52.827Z,96.37
2018-12-08T22:29:10.256Z,96.65
2018-12-08T22:32:27.571Z,96.73
2018-12-08T22:35:45.032Z,97.17
2018-12-08T22:39:02.809Z,97.43
2018-12-08T22:42:10.348Z,96.46
2018-12-08T22:45:17.803Z,97.11
2018-12-08T22:48:25.315Z,96.49
2018-12-08T22:51:32.840Z,97.00
2018-12-08T22:54:50.360Z,97.17
2018-12-08T22:57:58.173Z,96.72
2018-12-08T23:01:05.675Z,97.08
2018-12-08T23:04:13.143Z,97.67
2018-12-08T23:07:20.659Z,97.74
2018-12-08T23:10:38.295Z,97.57
2018-12-08T23:13:57.752Z,97.30
2018-12-08T23:17:15.671Z,97.38
2018-12-08T23:20:27.116Z,97.41
2018-12-08T23:23:34.866Z,98.35
2018-12-08T23:26:42.863Z,97.75
2018-12-08T23:29:50.552Z,97.79
2018-12-08T23:36:13.695Z,97.64
2018-12-08T23:39:38.775Z,97.63
2018-12-08T23:42:41.008Z,96.75
2018-12-08T23:45:48.455Z,97.41
2018-12-08T23:48:56.263Z,97.57
2018-12-08T23:52:03.836Z,97.17
2018-12-08T23:55:11.389Z,96.99
2018-12-08T23:58:18.864Z,97.00
